Time;durP1;ratioP1;P1;durP2;ratioP2;P2;SDS_P1;SDS_P2;PMS_P1;PMS_P2;Temp;Humidity;BMP_temperature;BMP_pressure;BME280_temperature;BME280_humidity;BME280_pressure;Samples;Min_cycle;Max_cycle;Signal;HPM_P1;HPM_P2
2023/01/30 00:00:28;;;;;;;12.40;3.30;;;;;;;;;;2091034;28;20025;-40
2023/01/30 00:01:30;;;;;;;8.48;2.67;;;;;;;;;;2091341;28;20327;-40
2023/01/30 00:02:30;;;;;;;10.57;2.92;;;;;;;;;;2091181;28;20103;-41
2023/01/30 00:03:30;;;;;;;10.40;3.60;;;;;;;;;;2092791;28;20024;-40
2023/01/30 00:04:30;;;;;;;12.18;2.85;;;;;;;;;;2099108;28;20012;-41
2023/01/30 00:05:30;;;;;;;16.77;3.42;;;;;;;;;;2098764;28;20063;-40
2023/01/30 00:06:31;;;;;;;10.43;2.90;;;;;;;;;;2098827;28;20024;-40
2023/01/30 00:07:31;;;;;;;11.77;3.42;;;;;;;;;;2098078;28;20023;-40
2023/01/30 00:08:31;;;;;;;10.53;3.10;;;;;;;;;;2099502;28;20348;-40
2023/01/30 00:09:31;;;;;;;9.83;3.00;;;;;;;;;;2099419;28;20313;-40
2023/01/30 00:10:32;;;;;;;8.67;2.93;;;;;;;;;;2098786;28;20336;-41
2023/01/30 00:11:32;;;;;;;9.48;2.97;;;;;;;;;;2098675;28;20021;-41
2023/01/30 00:12:32;;;;;;;10.20;2.92;;;;;;;;;;2090370;28;20112;-40
2023/01/30 00:13:32;;;;;;;10.97;3.03;;;;;;;;;;2098667;28;20203;-40
2023/01/30 00:14:32;;;;;;;10.45;3.13;;;;;;;;;;2099528;28;20073;-40
2023/01/30 00:15:33;;;;;;;12.63;3.40;;;;;;;;;;2098089;28;20460;-41
2023/01/30 00:16:33;;;;;;;7.28;3.10;;;;;;;;;;2090785;28;20295;-40
2023/01/30 00:17:33;;;;;;;9.57;2.90;;;;;;;;;;2090965;28;20086;-40
2023/01/30 00:18:34;;;;;;;8.20;2.70;;;;;;;;;;2090525;28;20024;-40
2023/01/30 00:19:34;;;;;;;11.68;3.08;;;;;;;;;;2090408;28;20251;-41
2023/01/30 00:20:34;;;;;;;8.30;3.07;;;;;;;;;;2090819;28;20041;-42
2023/01/30 00:21:34;;;;;;;13.00;2.90;;;;;;;;;;2091560;28;20329;-40
2023/01/30 00:22:34;;;;;;;11.37;2.83;;;;;;;;;;2090998;28;20079;-40
2023/01/30 00:23:35;;;;;;;9.83;3.00;;;;;;;;;;2091080;28;20685;-40
2023/01/30 00:24:36;;;;;;;8.88;3.15;;;;;;;;;;2091107;28;20096;-40
2023/01/30 00:25:36;;;;;;;8.40;2.53;;;;;;;;;;2090987;28;20029;-40
2023/01/30 00:26:36;;;;;;;14.67;3.20;;;;;;;;;;2098471;28;20024;-40
2023/01/30 00:27:36;;;;;;;11.47;2.83;;;;;;;;;;2099264;28;20254;-41
2023/01/30 00:28:36;;;;;;;10.60;2.90;;;;;;;;;;2099428;28;20593;-39
2023/01/30 00:29:37;;;;;;;9.90;3.50;;;;;;;;;;2091313;28;20032;-40
2023/01/30 00:30:37;;;;;;;12.52;3.38;;;;;;;;;;2091034;28;20028;-40
2023/01/30 00:31:37;;;;;;;10.37;2.90;;;;;;;;;;2090835;28;20081;-40
2023/01/30 00:32:37;;;;;;;11.53;3.27;;;;;;;;;;2091097;28;20029;-40
2023/01/30 00:33:38;;;;;;;11.77;3.40;;;;;;;;;;2090797;28;20281;-40
2023/01/30 00:34:38;;;;;;;10.27;3.10;;;;;;;;;;2090147;28;20351;-40
2023/01/30 00:35:42;;;;;;;9.17;3.17;;;;;;;;;;2090981;28;20083;-40
2023/01/30 00:36:42;;;;;;;9.68;3.25;;;;;;;;;;2090819;28;20288;-39
2023/01/30 00:37:42;;;;;;;10.27;3.67;;;;;;;;;;2098606;28;20476;-39
2023/01/30 00:38:42;;;;;;;7.72;3.08;;;;;;;;;;2089425;28;20380;-39
2023/01/30 00:39:42;;;;;;;12.07;3.40;;;;;;;;;;2098675;28;20045;-39
2023/01/30 00:40:43;;;;;;;11.50;2.67;;;;;;;;;;2099093;28;20265;-39
2023/01/30 00:47:05;;;;;;;10.45;3.75;;;;;;;;;;2099250;28;20028;-41
2023/01/30 00:48:05;;;;;;;10.45;3.08;;;;;;;;;;2098093;28;20028;-40
2023/01/30 00:49:05;;;;;;;6.70;2.75;;;;;;;;;;2090270;28;20036;-39
2023/01/30 00:50:06;;;;;;;12.17;3.40;;;;;;;;;;2090787;28;20028;-40
2023/01/30 00:51:06;;;;;;;11.77;3.38;;;;;;;;;;2090029;28;20242;-40
2023/01/30 00:52:07;;;;;;;12.07;3.45;;;;;;;;;;2089933;28;20060;-40
2023/01/30 00:53:08;;;;;;;8.82;2.85;;;;;;;;;;2090816;28;20440;-39
2023/01/30 00:54:08;;;;;;;9.18;3.33;;;;;;;;;;2090847;28;20046;-39
2023/01/30 00:55:09;;;;;;;10.35;3.30;;;;;;;;;;2090677;28;20467;-41
2023/01/30 00:56:09;;;;;;;8.13;2.97;;;;;;;;;;2098892;28;20020;-40
2023/01/30 00:57:09;;;;;;;9.32;3.08;;;;;;;;;;2098971;28;20023;-39
2023/01/30 00:58:09;;;;;;;10.33;2.87;;;;;;;;;;2099259;28;20063;-40
2023/01/30 00:59:09;;;;;;;9.83;3.00;;;;;;;;;;2098949;28;20253;-39
2023/01/30 01:00:10;;;;;;;9.50;3.60;;;;;;;;;;2099034;28;20359;-39
2023/01/30 01:01:10;;;;;;;15.68;3.85;;;;;;;;;;2098192;28;20717;-40
2023/01/30 01:02:10;;;;;;;8.70;3.03;;;;;;;;;;2099140;28;20458;-39
2023/01/30 01:03:10;;;;;;;10.40;3.00;;;;;;;;;;2098413;28;20487;-39
2023/01/30 01:04:10;;;;;;;10.17;3.27;;;;;;;;;;2098425;28;20283;-39
2023/01/30 01:05:10;;;;;;;11.37;3.50;;;;;;;;;;2098921;28;20248;-39
2023/01/30 01:06:11;;;;;;;12.57;3.20;;;;;;;;;;2091405;28;20737;-39
2023/01/30 01:07:12;;;;;;;11.55;2.72;;;;;;;;;;2089966;28;20323;-39
2023/01/30 01:08:12;;;;;;;12.38;3.92;;;;;;;;;;2090249;28;20575;-40
2023/01/30 01:09:12;;;;;;;8.90;3.20;;;;;;;;;;2090646;28;20074;-40
2023/01/30 01:10:15;;;;;;;10.27;3.28;;;;;;;;;;2090837;28;20585;-40
2023/01/30 01:11:23;;;;;;;9.32;2.83;;;;;;;;;;2097805;28;20017;-40
2023/01/30 01:12:23;;;;;;;11.43;3.35;;;;;;;;;;2099070;28;20468;-39
2023/01/30 01:13:23;;;;;;;8.80;3.05;;;;;;;;;;2099063;28;20039;-40
2023/01/30 01:14:23;;;;;;;11.87;3.17;;;;;;;;;;2099008;28;20051;-39
2023/01/30 01:15:24;;;;;;;11.20;3.23;;;;;;;;;;2098507;28;20325;-40
2023/01/30 01:16:26;;;;;;;8.70;2.85;;;;;;;;;;2090582;28;20610;-39
2023/01/30 01:17:26;;;;;;;15.05;3.45;;;;;;;;;;2090811;28;20039;-41
2023/01/30 01:18:26;;;;;;;8.87;3.07;;;;;;;;;;2098768;28;20060;-39
2023/01/30 01:19:26;;;;;;;8.95;2.80;;;;;;;;;;2098941;28;20629;-40
2023/01/30 01:20:27;;;;;;;7.55;2.90;;;;;;;;;;2094558;28;20104;-40
2023/01/30 01:21:27;;;;;;;8.03;2.80;;;;;;;;;;2098962;28;20074;-39
2023/01/30 01:22:27;;;;;;;11.90;3.10;;;;;;;;;;2098742;28;20252;-40
2023/01/30 01:23:27;;;;;;;10.70;2.50;;;;;;;;;;2099053;28;20112;-40
2023/01/30 01:24:27;;;;;;;7.33;3.33;;;;;;;;;;2098915;28;20237;-40
2023/01/30 01:25:27;;;;;;;7.95;3.22;;;;;;;;;;2095431;28;20288;-39
2023/01/30 01:26:28;;;;;;;8.32;2.50;;;;;;;;;;2097375;28;20033;-39
2023/01/30 01:27:28;;;;;;;8.00;3.10;;;;;;;;;;2098703;28;20067;-40
2023/01/30 01:28:28;;;;;;;8.37;3.07;;;;;;;;;;2098847;28;20028;-40
2023/01/30 01:29:28;;;;;;;8.13;2.97;;;;;;;;;;2098859;28;20254;-40
2023/01/30 01:30:28;;;;;;;11.83;3.43;;;;;;;;;;2095722;28;20261;-39
2023/01/30 01:31:28;;;;;;;9.47;3.07;;;;;;;;;;2090591;28;20716;-40
2023/01/30 01:32:29;;;;;;;8.45;3.10;;;;;;;;;;2090468;28;20288;-40
2023/01/30 01:33:29;;;;;;;11.93;3.53;;;;;;;;;;2090497;28;20033;-39
2023/01/30 01:34:29;;;;;;;10.02;3.03;;;;;;;;;;2089797;28;20021;-40
2023/01/30 01:35:29;;;;;;;8.87;2.80;;;;;;;;;;2090010;28;20040;-39
2023/01/30 01:36:29;;;;;;;7.90;2.83;;;;;;;;;;2096467;28;20020;-39
2023/01/30 01:37:29;;;;;;;7.13;2.93;;;;;;;;;;2098870;28;20339;-39
2023/01/30 01:38:29;;;;;;;10.17;2.80;;;;;;;;;;2098714;28;20085;-39
2023/01/30 01:41:00;;;;;;;8.35;2.78;;;;;;;;;;2098131;28;20245;-39
2023/01/30 01:41:03;;;;;;;9.07;3.05;;;;;;;;;;2096833;28;20024;-40
2023/01/30 01:42:03;;;;;;;8.52;2.85;;;;;;;;;;2098910;28;20027;-39
2023/01/30 01:43:20;;;;;;;12.27;2.65;;;;;;;;;;2098719;28;20013;-40
2023/01/30 01:44:23;;;;;;;18.83;2.72;;;;;;;;;;2098825;28;20090;-39
2023/01/30 01:45:23;;;;;;;6.57;2.60;;;;;;;;;;2097935;28;20475;-39
2023/01/30 01:46:29;;;;;;;8.63;2.60;;;;;;;;;;2098337;28;20021;-39
2023/01/30 01:47:31;;;;;;;10.38;3.17;;;;;;;;;;2098292;28;20033;-39
2023/01/30 01:48:43;;;;;;;5.88;2.03;;;;;;;;;;2098959;28;20021;-40
2023/01/30 01:49:43;;;;;;;8.60;2.50;;;;;;;;;;2097925;28;20043;-39
2023/01/30 01:50:47;;;;;;;8.93;2.80;;;;;;;;;;2098145;28;20024;-39
2023/01/30 01:51:56;;;;;;;5.30;2.22;;;;;;;;;;2098777;28;20257;-39
2023/01/30 01:52:56;;;;;;;6.05;2.60;;;;;;;;;;2092494;28;20492;-40
2023/01/30 01:54:02;;;;;;;9.45;2.90;;;;;;;;;;2090505;28;20096;-39
2023/01/30 01:55:04;;;;;;;7.30;2.30;;;;;;;;;;2090471;28;20021;-40
2023/01/30 01:56:04;;;;;;;9.55;2.90;;;;;;;;;;2090413;28;20069;-40
2023/01/30 01:57:10;;;;;;;7.53;2.58;;;;;;;;;;2090460;28;20415;-40
2023/01/30 01:58:14;;;;;;;9.25;3.35;;;;;;;;;;2090414;28;20029;-40
2023/01/30 01:59:24;;;;;;;5.88;2.00;;;;;;;;;;2089579;28;20456;-40
2023/01/30 02:00:24;;;;;;;;;;;;;;;;;;2090373;28;20018;-40
2023/01/30 02:01:25;;;;;;;6.53;2.17;;;;;;;;;;2090416;28;19995;-40
2023/01/30 02:02:25;;;;;;;8.95;2.22;;;;;;;;;;2091404;28;20017;-39
2023/01/30 02:03:27;;;;;;;6.00;2.28;;;;;;;;;;2098788;28;20052;-39
2023/01/30 02:05:50;;;;;;;9.40;2.72;;;;;;;;;;2098647;28;20111;-40
2023/01/30 02:06:50;;;;;;;8.35;2.47;;;;;;;;;;2098139;28;20036;-39
2023/01/30 02:07:56;;;;;;;9.33;2.40;;;;;;;;;;2097360;28;20093;-40
2023/01/30 02:09:02;;;;;;;6.80;2.70;;;;;;;;;;2098726;28;20324;-39
2023/01/30 02:10:03;;;;;;;7.00;1.98;;;;;;;;;;2098730;28;20020;-40
2023/01/30 02:11:11;;;;;;;6.82;2.30;;;;;;;;;;2098049;28;20080;-40
2023/01/30 02:12:13;;;;;;;5.90;2.35;;;;;;;;;;2097970;28;20047;-39
2023/01/30 02:13:13;;;;;;;4.32;1.85;;;;;;;;;;2090923;28;20387;-40
2023/01/30 02:14:14;;;;;;;8.07;2.60;;;;;;;;;;2090310;28;20081;-40
2023/01/30 02:15:16;;;;;;;5.32;1.83;;;;;;;;;;2090429;28;20021;-40
2023/01/30 02:16:16;;;;;;;6.70;2.17;;;;;;;;;;2097741;28;20487;-39
2023/01/30 02:17:16;;;;;;;8.73;2.17;;;;;;;;;;2098014;28;20023;-40
2023/01/30 02:18:17;;;;;;;6.50;2.57;;;;;;;;;;2093185;28;20017;-40
2023/01/30 02:19:38;;;;;;;5.35;1.98;;;;;;;;;;2089722;28;20261;-39
2023/01/30 02:20:38;;;;;;;3.13;1.75;;;;;;;;;;2089910;28;20496;-40
2023/01/30 02:21:57;;;;;;;6.77;2.87;;;;;;;;;;2090408;28;20034;-40
2023/01/30 02:23:03;;;;;;;7.28;2.25;;;;;;;;;;2093545;28;20260;-39
2023/01/30 02:24:12;;;;;;;5.28;1.80;;;;;;;;;;2098555;28;20082;-40
2023/01/30 02:25:21;;;;;;;7.28;2.47;;;;;;;;;;2097848;28;20029;-40
2023/01/30 02:26:21;;;;;;;4.60;2.22;;;;;;;;;;2097860;28;20032;-39
2023/01/30 02:27:22;;;;;;;7.73;2.20;;;;;;;;;;2092715;28;20025;-39
2023/01/30 02:28:25;;;;;;;6.17;2.10;;;;;;;;;;2090333;28;20296;-39
2023/01/30 02:29:31;;;;;;;6.15;2.42;;;;;;;;;;2090016;28;20357;-39
2023/01/30 02:30:50;;;;;;;5.07;2.13;;;;;;;;;;2095688;28;20464;-40
2023/01/30 02:31:56;;;;;;;10.85;2.15;;;;;;;;;;2098609;28;20054;-40
2023/01/30 02:33:02;;;;;;;2.65;1.55;;;;;;;;;;2097676;28;20032;-39
2023/01/30 02:34:10;;;;;;;4.90;2.20;;;;;;;;;;2098644;28;20107;-40
2023/01/30 02:35:26;;;;;;;4.22;1.60;;;;;;;;;;2098704;28;20020;-40
2023/01/30 02:36:46;;;;;;;4.55;1.80;;;;;;;;;;2098808;28;20447;-39
2023/01/30 02:37:56;;;;;;;4.18;1.98;;;;;;;;;;2096780;28;20030;-40
2023/01/30 02:38:59;;;;;;;6.07;2.00;;;;;;;;;;2090275;28;20025;-39
2023/01/30 02:39:59;;;;;;;4.90;2.05;;;;;;;;;;2092028;28;20024;-40
2023/01/30 02:41:17;;;;;;;6.63;2.40;;;;;;;;;;2091851;28;20021;-40
2023/01/30 02:42:30;;;;;;;5.03;2.05;;;;;;;;;;2091885;28;20028;-40
2023/01/30 02:43:30;;;;;;;5.57;1.90;;;;;;;;;;2093357;28;20079;-40
2023/01/30 02:44:43;;;;;;;5.30;2.17;;;;;;;;;;2091834;28;20071;-39
2023/01/30 02:45:51;;;;;;;4.22;1.92;;;;;;;;;;2091715;28;20100;-40
2023/01/30 02:46:54;;;;;;;9.93;2.58;;;;;;;;;;2092013;28;20372;-40
2023/01/30 02:48:08;;;;;;;7.32;2.00;;;;;;;;;;2094139;28;20021;-40
2023/01/30 02:49:16;;;;;;;5.95;2.22;;;;;;;;;;2093124;28;20361;-40
2023/01/30 02:50:19;;;;;;;6.65;2.38;;;;;;;;;;2091759;28;20422;-40
2023/01/30 02:51:21;;;;;;;6.00;1.60;;;;;;;;;;2096292;28;20111;-39
2023/01/30 02:52:22;;;;;;;5.13;2.10;;;;;;;;;;2099793;28;20064;-40
2023/01/30 02:53:22;;;;;;;5.53;2.03;;;;;;;;;;2100133;28;20455;-39
2023/01/30 02:54:22;;;;;;;4.07;2.05;;;;;;;;;;2100125;28;20020;-40
2023/01/30 02:55:24;;;;;;;7.03;2.07;;;;;;;;;;2100098;28;20024;-40
2023/01/30 02:56:25;;;;;;;4.63;1.92;;;;;;;;;;2097940;28;20265;-40
2023/01/30 02:57:26;;;;;;;3.67;1.60;;;;;;;;;;2099416;28;20054;-40
2023/01/30 02:58:29;;;;;;;6.28;2.35;;;;;;;;;;2099375;28;20115;-39
2023/01/30 02:59:40;;;;;;;5.18;2.10;;;;;;;;;;2099850;28;20020;-40
2023/01/30 03:00:40;;;;;;;;;;;;;;;;;;2100408;28;20028;-40
2023/01/30 03:01:51;;;;;;;5.57;1.90;;;;;;;;;;2093118;28;19909;-40
2023/01/30 03:03:09;;;;;;;3.95;1.73;;;;;;;;;;2091921;28;20021;-40
2023/01/30 03:04:30;;;;;;;4.35;1.73;;;;;;;;;;2091715;28;20465;-40
2023/01/30 03:05:37;;;;;;;4.32;1.98;;;;;;;;;;2091678;28;20024;-40
2023/01/30 03:06:48;;;;;;;5.97;2.08;;;;;;;;;;2090992;28;20028;-40
2023/01/30 03:08:07;;;;;;;8.35;1.90;;;;;;;;;;2091298;28;20499;-40
2023/01/30 03:09:24;;;;;;;6.70;2.38;;;;;;;;;;2091779;28;20100;-39
2023/01/30 03:10:33;;;;;;;3.50;1.60;;;;;;;;;;2097996;28;20078;-40
2023/01/30 03:11:47;;;;;;;6.45;1.83;;;;;;;;;;2099993;28;20056;-40
2023/01/30 03:12:51;;;;;;;3.80;1.65;;;;;;;;;;2091416;28;20033;-39
2023/01/30 03:13:57;;;;;;;4.32;2.00;;;;;;;;;;2091591;28;20036;-39
2023/01/30 03:14:59;;;;;;;6.00;1.75;;;;;;;;;;2093599;28;20017;-39
2023/01/30 03:16:03;;;;;;;3.67;1.70;;;;;;;;;;2099798;28;20025;-40
2023/01/30 03:17:05;;;;;;;4.45;1.60;;;;;;;;;;2099757;28;20020;-40
2023/01/30 03:18:05;;;;;;;3.13;1.70;;;;;;;;;;2099882;28;20408;-40
2023/01/30 03:19:10;;;;;;;3.80;1.90;;;;;;;;;;2099815;28;20024;-40
2023/01/30 03:20:10;;;;;;;4.28;1.85;;;;;;;;;;2099250;28;20103;-40
2023/01/30 03:21:11;;;;;;;6.47;1.85;;;;;;;;;;2099142;28;20024;-40
2023/01/30 03:22:11;;;;;;;3.40;1.67;;;;;;;;;;2099444;28;20036;-39
2023/01/30 03:23:12;;;;;;;4.40;1.83;;;;;;;;;;2099025;28;20020;-39
2023/01/30 03:24:13;;;;;;;3.78;1.85;;;;;;;;;;2089774;28;20324;-41
2023/01/30 03:25:16;;;;;;;2.92;1.50;;;;;;;;;;2095398;28;20445;-41
2023/01/30 03:26:18;;;;;;;5.20;1.60;;;;;;;;;;2099838;28;20074;-41
2023/01/30 03:27:20;;;;;;;2.80;1.60;;;;;;;;;;2099758;28;20104;-41
2023/01/30 03:28:20;;;;;;;4.82;1.50;;;;;;;;;;2099853;28;20017;-40
2023/01/30 03:29:21;;;;;;;4.15;1.80;;;;;;;;;;2098753;28;20515;-41
2023/01/30 03:30:22;;;;;;;4.73;1.93;;;;;;;;;;2099890;28;20402;-40
2023/01/30 03:31:22;;;;;;;3.67;1.73;;;;;;;;;;2098409;28;20249;-41
2023/01/30 03:32:22;;;;;;;3.50;1.65;;;;;;;;;;2097949;28;20025;-41
2023/01/30 03:33:22;;;;;;;4.73;1.77;;;;;;;;;;2099641;28;20494;-41
2023/01/30 03:34:22;;;;;;;6.30;2.50;;;;;;;;;;2099919;28;20432;-41
2023/01/30 03:35:23;;;;;;;5.87;2.07;;;;;;;;;;2099717;28;20249;-41
2023/01/30 03:36:23;;;;;;;3.25;1.38;;;;;;;;;;2099849;28;20248;-41
2023/01/30 03:37:23;;;;;;;3.33;1.77;;;;;;;;;;2096352;28;20029;-41
2023/01/30 03:38:23;;;;;;;5.03;1.73;;;;;;;;;;2091467;28;20052;-41
2023/01/30 03:39:24;;;;;;;3.73;1.53;;;;;;;;;;2095573;28;20301;-41
2023/01/30 03:40:24;;;;;;;5.47;1.70;;;;;;;;;;2099642;28;20669;-41
2023/01/30 03:41:24;;;;;;;3.30;1.50;;;;;;;;;;2099654;28;20025;-41
2023/01/30 03:42:24;;;;;;;4.70;1.70;;;;;;;;;;2096908;28;20414;-41
2023/01/30 03:43:24;;;;;;;5.93;1.92;;;;;;;;;;2091248;28;20082;-41
2023/01/30 03:44:25;;;;;;;4.50;1.93;;;;;;;;;;2091289;28;20468;-41
2023/01/30 03:45:25;;;;;;;4.50;1.93;;;;;;;;;;2091315;28;20585;-41
2023/01/30 03:46:25;;;;;;;6.37;1.97;;;;;;;;;;2091526;28;20028;-41
2023/01/30 03:47:25;;;;;;;5.17;1.83;;;;;;;;;;2091286;28;20247;-41
2023/01/30 03:48:25;;;;;;;3.22;1.52;;;;;;;;;;2091272;28;20666;-41
2023/01/30 03:49:26;;;;;;;3.00;1.33;;;;;;;;;;2091393;28;20029;-41
2023/01/30 03:50:27;;;;;;;3.85;1.80;;;;;;;;;;2090983;28;20288;-41
2023/01/30 03:51:27;;;;;;;3.60;2.00;;;;;;;;;;2091379;28;20420;-41
2023/01/30 03:52:27;;;;;;;3.80;1.60;;;;;;;;;;2092531;28;20557;-41
2023/01/30 03:53:27;;;;;;;5.23;1.70;;;;;;;;;;2099786;28;20267;-41
2023/01/30 03:54:27;;;;;;;4.90;1.60;;;;;;;;;;2098690;28;20310;-41
2023/01/30 03:55:27;;;;;;;3.60;1.57;;;;;;;;;;2099515;28;20249;-41
2023/01/30 03:56:27;;;;;;;4.27;1.67;;;;;;;;;;2099597;28;20024;-41
2023/01/30 03:57:28;;;;;;;6.00;1.90;;;;;;;;;;2097877;28;20398;-40
2023/01/30 03:58:28;;;;;;;4.57;1.83;;;;;;;;;;2091201;28;20033;-41
2023/01/30 03:59:28;;;;;;;5.25;1.70;;;;;;;;;;2091388;28;20254;-41
2023/01/30 04:00:28;;;;;;;5.57;1.40;;;;;;;;;;2091271;28;20055;-42
2023/01/30 04:01:28;;;;;;;4.10;1.57;;;;;;;;;;2091280;28;20249;-41
2023/01/30 04:02:28;;;;;;;5.07;1.77;;;;;;;;;;2091341;28;20249;-41
2023/01/30 04:03:28;;;;;;;6.37;1.80;;;;;;;;;;2099512;28;20439;-42
2023/01/30 04:04:29;;;;;;;3.33;1.53;;;;;;;;;;2099375;28;20245;-41
2023/01/30 04:05:29;;;;;;;8.10;1.70;;;;;;;;;;2099521;28;20316;-41
2023/01/30 04:06:29;;;;;;;4.97;1.70;;;;;;;;;;2099445;28;20342;-41
2023/01/30 04:07:29;;;;;;;4.37;1.77;;;;;;;;;;2099042;28;20025;-41
2023/01/30 04:08:29;;;;;;;4.32;1.63;;;;;;;;;;2090479;28;20261;-41
2023/01/30 04:09:30;;;;;;;7.60;1.73;;;;;;;;;;2093395;28;20021;-41
2023/01/30 04:10:30;;;;;;;5.53;1.50;;;;;;;;;;2099389;28;20643;-41
2023/01/30 04:11:30;;;;;;;4.53;2.00;;;;;;;;;;2099751;28;20103;-41
2023/01/30 04:12:30;;;;;;;5.67;1.60;;;;;;;;;;2099410;28;20657;-41
2023/01/30 04:13:30;;;;;;;5.40;1.70;;;;;;;;;;2098694;28;20281;-41
2023/01/30 04:14:30;;;;;;;4.10;1.67;;;;;;;;;;2098377;28;20032;-41
2023/01/30 04:15:31;;;;;;;3.03;1.50;;;;;;;;;;2098616;28;20033;-40
2023/01/30 04:16:31;;;;;;;4.10;1.63;;;;;;;;;;2097479;28;20241;-44
2023/01/30 04:17:31;;;;;;;4.30;1.93;;;;;;;;;;2099171;28;20048;-41
2023/01/30 04:18:32;;;;;;;5.30;1.87;;;;;;;;;;2099427;28;20643;-40
2023/01/30 04:19:32;;;;;;;4.75;1.90;;;;;;;;;;2099305;28;20017;-40
2023/01/30 04:20:32;;;;;;;4.43;1.63;;;;;;;;;;2098724;28;20056;-41
2023/01/30 04:21:32;;;;;;;4.38;1.75;;;;;;;;;;2097988;28;20268;-41
2023/01/30 04:22:33;;;;;;;5.18;1.80;;;;;;;;;;2090967;28;20408;-41
2023/01/30 04:23:33;;;;;;;3.83;1.67;;;;;;;;;;2091063;28;20048;-41
2023/01/30 04:24:33;;;;;;;5.27;1.67;;;;;;;;;;2090840;28;20304;-41
2023/01/30 04:25:33;;;;;;;3.53;1.43;;;;;;;;;;2090358;28;20315;-41
2023/01/30 04:26:33;;;;;;;3.90;1.80;;;;;;;;;;2091022;28;20414;-41
2023/01/30 04:27:33;;;;;;;7.57;1.90;;;;;;;;;;2091069;28;20258;-40
2023/01/30 04:28:34;;;;;;;7.27;2.00;;;;;;;;;;2091189;28;20340;-41
2023/01/30 04:29:34;;;;;;;4.50;1.55;;;;;;;;;;2090965;28;20307;-41
2023/01/30 04:30:34;;;;;;;5.17;1.73;;;;;;;;;;2090609;28;20043;-40
2023/01/30 04:31:34;;;;;;;6.32;1.80;;;;;;;;;;2090339;28;20028;-41
2023/01/30 04:32:34;;;;;;;3.20;1.73;;;;;;;;;;2097240;28;20407;-41
2023/01/30 04:33:35;;;;;;;7.07;1.90;;;;;;;;;;2098613;28;20175;-41
2023/01/30 04:34:35;;;;;;;4.13;1.92;;;;;;;;;;2099377;28;20238;-41
2023/01/30 04:35:35;;;;;;;3.87;1.63;;;;;;;;;;2099196;28;20016;-41
2023/01/30 04:36:35;;;;;;;3.57;1.67;;;;;;;;;;2099254;28;20831;-41
2023/01/30 04:37:36;;;;;;;4.40;1.60;;;;;;;;;;2091926;28;20262;-40
2023/01/30 04:38:36;;;;;;;4.90;1.88;;;;;;;;;;2091002;28;20099;-41
2023/01/30 04:39:36;;;;;;;5.30;1.80;;;;;;;;;;2095965;28;20020;-41
2023/01/30 04:40:36;;;;;;;3.63;1.67;;;;;;;;;;2099109;28;20249;-41
2023/01/30 04:41:36;;;;;;;3.27;1.47;;;;;;;;;;2099171;28;20241;-41
2023/01/30 04:42:36;;;;;;;6.87;1.90;;;;;;;;;;2092379;28;20743;-41
2023/01/30 04:43:36;;;;;;;5.60;1.93;;;;;;;;;;2090808;28;20258;-41
2023/01/30 04:44:37;;;;;;;5.10;1.80;;;;;;;;;;2090742;28;20270;-41
2023/01/30 04:45:37;;;;;;;5.07;1.70;;;;;;;;;;2091028;28;20258;-40
2023/01/30 04:46:37;;;;;;;8.30;1.90;;;;;;;;;;2090837;28;20696;-41
2023/01/30 04:47:37;;;;;;;6.07;1.63;;;;;;;;;;2091030;28;20246;-40
2023/01/30 04:48:38;;;;;;;5.13;1.83;;;;;;;;;;2090818;28;20029;-41
2023/01/30 04:49:38;;;;;;;3.65;1.65;;;;;;;;;;2095128;28;20074;-41
2023/01/30 04:50:38;;;;;;;6.40;1.60;;;;;;;;;;2098958;28;20032;-41
2023/01/30 04:51:38;;;;;;;2.35;1.38;;;;;;;;;;2099157;28;20060;-41
2023/01/30 04:52:39;;;;;;;4.47;1.63;;;;;;;;;;2098667;28;20048;-41
2023/01/30 04:53:39;;;;;;;3.37;1.57;;;;;;;;;;2099058;28;20328;-41
2023/01/30 04:54:39;;;;;;;5.87;1.80;;;;;;;;;;2093841;28;20345;-41
2023/01/30 04:55:39;;;;;;;4.00;1.57;;;;;;;;;;2090756;28;20250;-41
2023/01/30 04:56:39;;;;;;;4.82;1.48;;;;;;;;;;2090729;28;20296;-40
2023/01/30 04:57:39;;;;;;;4.90;1.60;;;;;;;;;;2092283;28;20423;-40
2023/01/30 04:58:40;;;;;;;4.63;1.80;;;;;;;;;;2098956;28;20083;-40
2023/01/30 04:59:40;;;;;;;6.83;2.33;;;;;;;;;;2098572;28;20025;-41
2023/01/30 05:00:40;;;;;;;4.90;1.50;;;;;;;;;;2098435;28;20253;-40
2023/01/30 05:01:40;;;;;;;4.60;1.80;;;;;;;;;;2097396;28;20712;-40
2023/01/30 05:02:40;;;;;;;5.32;1.88;;;;;;;;;;2098792;28;20036;-41
2023/01/30 05:03:40;;;;;;;4.63;1.33;;;;;;;;;;2099058;28;20027;-41
2023/01/30 05:04:41;;;;;;;4.00;1.60;;;;;;;;;;2099002;28;20119;-40
2023/01/30 05:05:41;;;;;;;6.15;1.48;;;;;;;;;;2099150;28;20250;-41
2023/01/30 05:06:41;;;;;;;4.80;1.70;;;;;;;;;;2098241;28;20069;-40
2023/01/30 05:07:41;;;;;;;5.30;1.67;;;;;;;;;;2098612;28;20826;-41
2023/01/30 05:08:41;;;;;;;15.93;2.00;;;;;;;;;;2098992;28;20584;-41
2023/01/30 05:09:41;;;;;;;3.63;1.47;;;;;;;;;;2098180;28;20098;-40
2023/01/30 05:10:42;;;;;;;6.23;1.70;;;;;;;;;;2098352;28;20020;-41
2023/01/30 05:11:42;;;;;;;5.13;1.87;;;;;;;;;;2096249;28;20237;-41
2023/01/30 05:12:42;;;;;;;4.20;1.40;;;;;;;;;;2090641;28;20664;-41
2023/01/30 05:13:42;;;;;;;8.20;1.73;;;;;;;;;;2090541;28;20024;-40
2023/01/30 05:14:43;;;;;;;3.33;1.33;;;;;;;;;;2090756;28;20416;-40
2023/01/30 05:15:43;;;;;;;5.90;1.90;;;;;;;;;;2094135;28;20070;-41
2023/01/30 05:16:43;;;;;;;5.43;2.13;;;;;;;;;;2098308;28;20280;-41
2023/01/30 05:17:44;;;;;;;3.90;1.77;;;;;;;;;;2099007;28;20029;-41
2023/01/30 05:18:44;;;;;;;3.73;1.70;;;;;;;;;;2098980;28;20249;-41
2023/01/30 05:19:44;;;;;;;3.83;1.55;;;;;;;;;;2098859;28;20767;-41
2023/01/30 05:20:44;;;;;;;6.15;1.85;;;;;;;;;;2098933;28;20345;-41
2023/01/30 05:21:44;;;;;;;4.93;1.47;;;;;;;;;;2097968;28;20016;-41
2023/01/30 05:22:44;;;;;;;5.57;1.63;;;;;;;;;;2098386;28;20254;-40
2023/01/30 05:23:45;;;;;;;5.83;1.60;;;;;;;;;;2096848;28;20380;-41
2023/01/30 05:24:45;;;;;;;5.35;1.58;;;;;;;;;;2090527;28;20257;-41
2023/01/30 05:25:45;;;;;;;2.80;1.43;;;;;;;;;;2090496;28;20021;-41
2023/01/30 05:26:45;;;;;;;4.70;2.10;;;;;;;;;;2090642;28;20467;-41
2023/01/30 05:27:45;;;;;;;8.52;1.60;;;;;;;;;;2090494;28;20415;-41
2023/01/30 05:28:55;;;;;;;5.40;1.97;;;;;;;;;;2089980;28;20020;-41
2023/01/30 05:29:56;;;;;;;7.18;1.85;;;;;;;;;;2089997;28;20268;-42
2023/01/30 05:31:06;;;;;;;5.83;1.87;;;;;;;;;;2090476;28;20017;-40
2023/01/30 05:32:06;;;;;;;;;;;;;;;;;;2094042;28;20662;-41
2023/01/30 05:33:06;;;;;;;6.13;1.83;;;;;;;;;;2098823;28;19958;-40
2023/01/30 05:34:09;;;;;;;3.90;1.60;;;;;;;;;;2098787;28;20017;-40
2023/01/30 05:35:09;;;;;;;5.57;1.80;;;;;;;;;;2098907;28;20494;-41
2023/01/30 05:36:12;;;;;;;3.78;1.83;;;;;;;;;;2098391;28;20115;-43
2023/01/30 05:37:13;;;;;;;6.30;1.85;;;;;;;;;;2098798;28;20104;-40
2023/01/30 05:38:13;;;;;;;4.20;1.57;;;;;;;;;;2098862;28;20364;-41
2023/01/30 05:39:13;;;;;;;4.68;1.80;;;;;;;;;;2098682;28;20237;-41
2023/01/30 05:40:14;;;;;;;7.43;1.80;;;;;;;;;;2098729;28;20434;-41
2023/01/30 05:41:14;;;;;;;5.25;2.00;;;;;;;;;;2097763;28;20058;-42
2023/01/30 05:42:15;;;;;;;6.07;1.77;;;;;;;;;;2097855;28;20368;-41
2023/01/30 05:43:15;;;;;;;3.87;1.33;;;;;;;;;;2098976;28;20024;-41
2023/01/30 05:44:15;;;;;;;5.33;2.20;;;;;;;;;;2098782;28;20248;-41
2023/01/30 05:45:15;;;;;;;7.35;2.03;;;;;;;;;;2094284;28;20261;-40
2023/01/30 05:46:15;;;;;;;6.63;1.92;;;;;;;;;;2089981;28;20111;-41
2023/01/30 05:47:15;;;;;;;3.75;1.73;;;;;;;;;;2090129;28;20025;-40
2023/01/30 05:48:15;;;;;;;7.67;1.90;;;;;;;;;;2090436;28;20052;-41
2023/01/30 05:49:16;;;;;;;5.43;1.87;;;;;;;;;;2090446;28;20242;-40
2023/01/30 05:50:16;;;;;;;6.13;1.75;;;;;;;;;;2090492;28;20029;-41
2023/01/30 05:51:20;;;;;;;5.88;1.95;;;;;;;;;;2090367;28;20028;-41
2023/01/30 05:52:21;;;;;;;4.93;1.80;;;;;;;;;;2089380;28;20528;-41
2023/01/30 05:53:21;;;;;;;4.47;1.80;;;;;;;;;;2089772;28;20021;-40
2023/01/30 05:54:22;;;;;;;3.10;1.38;;;;;;;;;;2090444;28;20612;-40
2023/01/30 05:55:22;;;;;;;4.93;1.73;;;;;;;;;;2090346;28;20033;-40
2023/01/30 05:56:22;;;;;;;4.93;1.67;;;;;;;;;;2089858;28;20641;-41
2023/01/30 05:57:22;;;;;;;4.38;1.58;;;;;;;;;;2089691;28;20238;-41
2023/01/30 05:58:23;;;;;;;4.93;1.60;;;;;;;;;;2090599;28;20085;-40
2023/01/30 05:59:23;;;;;;;5.45;2.10;;;;;;;;;;2090230;28;20325;-40
2023/01/30 06:00:23;;;;;;;3.73;1.63;;;;;;;;;;2093960;28;20027;-41
2023/01/30 06:01:23;;;;;;;4.75;1.80;;;;;;;;;;2098818;28;20460;-40
2023/01/30 06:02:24;;;;;;;6.60;1.98;;;;;;;;;;2098731;28;20543;-40
2023/01/30 06:03:24;;;;;;;5.75;1.52;;;;;;;;;;2098706;28;20036;-40
2023/01/30 06:04:24;;;;;;;6.20;1.73;;;;;;;;;;2098077;28;20113;-40
2023/01/30 06:05:24;;;;;;;4.50;1.43;;;;;;;;;;2097239;28;20036;-41
2023/01/30 06:06:24;;;;;;;4.63;1.67;;;;;;;;;;2098759;28;20245;-41
2023/01/30 06:07:25;;;;;;;3.00;1.43;;;;;;;;;;2098031;28;20397;-40
2023/01/30 06:08:25;;;;;;;3.78;1.48;;;;;;;;;;2096975;28;20245;-41
2023/01/30 06:09:25;;;;;;;16.00;1.98;;;;;;;;;;2097323;28;20032;-41
2023/01/30 06:10:25;;;;;;;5.67;1.83;;;;;;;;;;2098653;28;20022;-41
2023/01/30 06:11:26;;;;;;;8.13;1.80;;;;;;;;;;2095972;28;20273;-42
2023/01/30 06:12:26;;;;;;;4.82;1.48;;;;;;;;;;2097381;28;20736;-41
2023/01/30 06:13:26;;;;;;;5.13;1.63;;;;;;;;;;2096820;28;20452;-43
2023/01/30 06:14:26;;;;;;;3.13;1.67;;;;;;;;;;2091144;28;20303;-40
2023/01/30 06:15:26;;;;;;;4.18;1.60;;;;;;;;;;2094175;28;20261;-41
2023/01/30 06:16:27;;;;;;;3.97;1.58;;;;;;;;;;2100594;28;20031;-40